createdAt,value
2022-11-13T00:01:08.445Z,102455.25
2022-11-13T00:03:36.207Z,102457.16
2022-11-13T00:06:04.617Z,102458.47
2022-11-13T00:08:34.277Z,102452.50
2022-11-13T00:11:03.618Z,102453.59
2022-11-13T00:13:31.485Z,102452.22
2022-11-13T00:16:00.874Z,102456.25
2022-11-13T00:18:30.784Z,102446.22
2022-11-13T00:20:59.459Z,102451.31
2022-11-13T00:23:27.243Z,102448.06
2022-11-13T00:25:56.628Z,102456.44
2022-11-13T00:28:24.500Z,102451.84
2022-11-13T00:30:52.497Z,102449.69
2022-11-13T00:33:38.331Z,102444.28
2022-11-13T00:36:16.872Z,102445.09
2022-11-13T00:38:44.958Z,102441.03
2022-11-13T00:41:14.368Z,102434.00
2022-11-13T00:43:42.988Z,102436.13
2022-11-13T00:46:11.226Z,102438.28
2022-11-13T00:48:39.548Z,102439.63
2022-11-13T00:51:07.774Z,102434.44
2022-11-13T00:53:35.843Z,102428.50
2022-11-13T00:56:03.853Z,102436.06
2022-11-13T00:58:33.372Z,102423.84
2022-11-13T01:01:07.560Z,102415.44
2022-11-13T01:03:36.031Z,102415.97
2022-11-13T01:06:12.075Z,102419.19
2022-11-13T01:08:40.068Z,102414.56
2022-11-13T01:11:12.424Z,102420.50
2022-11-13T01:13:42.688Z,102417.00
2022-11-13T01:16:13.479Z,102413.72
2022-11-13T01:18:42.883Z,102416.19
2022-11-13T01:21:13.337Z,102413.22
2022-11-13T01:23:41.601Z,102407.81
2022-11-13T01:26:12.868Z,102414.28
2022-11-13T01:28:43.586Z,102409.97
2022-11-13T01:31:13.491Z,102411.00
2022-11-13T01:33:41.587Z,102406.66
2022-11-13T01:36:13.111Z,102406.66
2022-11-13T01:38:40.918Z,102401.75
2022-11-13T01:41:12.221Z,102391.22
2022-11-13T01:43:41.403Z,102396.84
2022-11-13T01:46:17.310Z,102389.28
2022-11-13T01:48:48.591Z,102382.25
2022-11-13T01:51:25.295Z,102387.09
2022-11-13T01:53:54.428Z,102385.44
2022-11-13T01:56:23.620Z,102386.25
2022-11-13T01:58:59.991Z,102380.56
2022-11-13T02:01:27.924Z,102384.34
2022-11-13T02:03:55.937Z,102377.84
2022-11-13T02:06:24.123Z,102375.69
2022-11-13T02:08:52.563Z,102371.69
2022-11-13T02:11:21.877Z,102367.09
2022-11-13T02:13:50.519Z,102360.06
2022-11-13T02:16:21.347Z,102358.97
2022-11-13T02:18:49.490Z,102359.22
2022-11-13T02:21:32.902Z,102361.09
2022-11-13T02:24:22.061Z,102364.88
2022-11-13T02:26:51.974Z,102365.47
2022-11-13T02:29:20.082Z,102355.16
2022-11-13T02:31:47.915Z,102364.88
2022-11-13T02:34:15.746Z,102355.97
2022-11-13T02:36:43.892Z,102360.56
2022-11-13T02:39:14.423Z,102351.91
2022-11-13T02:41:43.862Z,102349.19
2022-11-13T02:44:11.820Z,102347.31
2022-11-13T02:46:39.705Z,102348.38
2022-11-13T02:49:07.716Z,102350.00
2022-11-13T02:51:35.553Z,102342.72
2022-11-13T02:54:03.635Z,102348.13
2022-11-13T02:56:31.545Z,102350.56
2022-11-13T02:59:00.890Z,102338.91
2022-11-13T03:01:28.782Z,102342.72
2022-11-13T03:03:58.015Z,102342.72
2022-11-13T03:06:26.327Z,102340.25
2022-11-13T03:08:54.482Z,102332.41
2022-11-13T03:11:22.565Z,102336.16
2022-11-13T03:13:50.411Z,102329.66
2022-11-13T03:16:19.643Z,102326.41
2022-11-13T03:18:47.525Z,102327.47
2022-11-13T03:21:16.839Z,102317.72
2022-11-13T03:23:46.135Z,102321.50
2022-11-13T03:26:17.894Z,102315.56
2022-11-13T03:28:45.651Z,102312.31
2022-11-13T03:31:13.944Z,102315.00
2022-11-13T03:33:43.861Z,102313.34
2022-11-13T03:36:11.702Z,102311.72
2022-11-13T03:38:39.706Z,102310.66
2022-11-13T03:41:07.530Z,102308.75
2022-11-13T03:43:35.348Z,102312.31
2022-11-13T03:46:03.559Z,102306.91
2022-11-13T03:48:31.764Z,102306.31
2022-11-13T03:51:01.467Z,102304.69
2022-11-13T03:53:29.628Z,102297.09
2022-11-13T03:55:57.403Z,102298.19
2022-11-13T03:58:25.713Z,102297.59
2022-11-13T04:00:56.139Z,102296.25
2022-11-13T04:03:24.407Z,102286.78
2022-11-13T04:05:52.761Z,102288.91
2022-11-13T04:08:22.192Z,102294.84
2022-11-13T04:10:49.953Z,102286.19
2022-11-13T04:13:17.765Z,102294.50
2022-11-13T04:15:45.739Z,102295.84
2022-11-13T04:18:13.903Z,102292.03
2022-11-13T04:20:41.739Z,102288.22
2022-11-13T04:23:12.604Z,102283.91
2022-11-13T04:25:42.107Z,102283.91
2022-11-13T04:28:10.697Z,102284.97
2022-11-13T04:30:39.198Z,102285.78
2022-11-13T04:33:07.713Z,102290.38
2022-11-13T04:35:35.733Z,102281.69
2022-11-13T04:38:03.709Z,102283.84
2022-11-13T04:40:31.776Z,102276.25
2022-11-13T04:43:00.132Z,102278.38
2022-11-13T04:45:28.733Z,102270.81
2022-11-13T04:47:57.278Z,102269.44
2022-11-13T04:50:25.223Z,102270.19
2022-11-13T04:52:53.213Z,102271.22
2022-11-13T04:55:21.365Z,102270.59
2022-11-13T04:57:51.593Z,102270.31
2022-11-13T05:00:21.377Z,102273.50
2022-11-13T05:02:49.241Z,102269.97
2022-11-13T05:05:17.375Z,102273.22
2022-11-13T05:07:45.577Z,102278.84
2022-11-13T05:10:13.911Z,102272.81
2022-11-13T05:12:42.202Z,102271.38
2022-11-13T05:15:10.530Z,102267.63
2022-11-13T05:17:39.980Z,102267.38
2022-11-13T05:20:10.902Z,102267.13
2022-11-13T05:22:39.041Z,102266.06
2022-11-13T05:25:07.592Z,102271.91
2022-11-13T05:27:35.671Z,102256.09
2022-11-13T05:30:03.550Z,102267.25
2022-11-13T05:32:31.415Z,102258.06
2022-11-13T05:35:00.626Z,102249.88
2022-11-13T05:37:30.055Z,102252.59
2022-11-13T05:39:58.060Z,102252.88
2022-11-13T05:42:26.037Z,102253.22
2022-11-13T05:44:53.885Z,102247.31
2022-11-13T05:47:21.791Z,102245.19
2022-11-13T05:49:51.960Z,102241.44
2022-11-13T05:52:21.255Z,102241.44
2022-11-13T05:54:49.079Z,102237.66
2022-11-13T05:57:17.302Z,102238.72
2022-11-13T05:59:45.117Z,102230.63
2022-11-13T06:02:13.332Z,102226.88
2022-11-13T06:04:41.363Z,102226.88
2022-11-13T06:07:09.234Z,102218.22
2022-11-13T06:09:38.641Z,102219.84
2022-11-13T06:12:06.969Z,102220.91
2022-11-13T06:14:34.910Z,102212.81
2022-11-13T06:17:02.739Z,102205.78
2022-11-13T06:19:30.971Z,102205.47
2022-11-13T06:21:58.958Z,102206.81
2022-11-13T06:24:26.710Z,102196.50
2022-11-13T06:26:55.933Z,102194.06
2022-11-13T06:29:24.048Z,102188.34
2022-11-13T06:31:52.060Z,102203.97
2022-11-13T06:34:20.027Z,102199.66
2022-11-13T06:36:47.915Z,102208.00
2022-11-13T06:39:16.227Z,102204.97
2022-11-13T06:41:44.259Z,102204.41
2022-11-13T06:44:13.550Z,102208.19
2022-11-13T06:46:41.424Z,102203.28
2022-11-13T06:49:09.439Z,102203.78
2022-11-13T06:51:37.174Z,102202.16
2022-11-13T06:54:05.579Z,102193.50
2022-11-13T06:56:33.503Z,102192.91
2022-11-13T06:59:01.861Z,102192.38
2022-11-13T07:01:32.490Z,102195.63
2022-11-13T07:04:00.334Z,102194.56
2022-11-13T07:06:28.523Z,102191.03
2022-11-13T07:08:56.410Z,102178.63
2022-11-13T07:11:25.056Z,102176.19
2022-11-13T07:13:53.031Z,102174.56
2022-11-13T07:16:21.176Z,102187.50
2022-11-13T07:18:54.508Z,102177.19
2022-11-13T07:21:24.566Z,102186.34
2022-11-13T07:23:53.036Z,102182.84
2022-11-13T07:26:21.041Z,102179.59
2022-11-13T07:28:49.504Z,102174.41
2022-11-13T07:31:18.932Z,102171.72
2022-11-13T07:33:49.523Z,102168.81
2022-11-13T07:36:19.267Z,102164.78
2022-11-13T07:38:47.184Z,102175.56
2022-11-13T07:41:15.029Z,102175.56
2022-11-13T07:43:43.285Z,102173.94
2022-11-13T07:46:11.854Z,102178.50
2022-11-13T07:48:39.755Z,102166.91
2022-11-13T07:51:07.610Z,102160.72
2022-11-13T07:53:39.216Z,102163.16
2022-11-13T07:56:07.804Z,102161.53
2022-11-13T07:58:35.637Z,102156.69
2022-11-13T08:01:05.283Z,102161.81
2022-11-13T08:03:33.411Z,102157.25
2022-11-13T08:06:03.117Z,102162.63
2022-11-13T08:08:33.854Z,102151.84
2022-11-13T08:11:06.896Z,102158.31
2022-11-13T08:13:35.524Z,102153.47
2022-11-13T08:16:04.148Z,102153.47
2022-11-13T08:18:33.036Z,102147.06
2022-11-13T08:21:02.781Z,102145.97
2022-11-13T08:23:30.640Z,102148.69
2022-11-13T08:25:58.995Z,102151.38
2022-11-13T08:28:28.629Z,102151.13
2022-11-13T08:30:57.030Z,102153.81
2022-11-13T08:33:25.085Z,102143.03
2022-11-13T08:35:54.792Z,102146.28
2022-11-13T08:38:22.959Z,102145.47
2022-11-13T08:40:51.224Z,102141.22
2022-11-13T08:43:19.457Z,102136.94
2022-11-13T08:45:48.844Z,102138.63
2022-11-13T08:48:16.700Z,102137.06
2022-11-13T08:50:44.515Z,102130.06
2022-11-13T08:53:12.780Z,102117.72
2022-11-13T08:55:40.745Z,102116.72
2022-11-13T08:58:08.745Z,102111.94
2022-11-13T09:00:36.594Z,102107.13
2022-11-13T09:03:05.885Z,102098.84
2022-11-13T09:05:33.874Z,102100.50
2022-11-13T09:08:02.720Z,102094.88
2022-11-13T09:10:30.900Z,102095.47
2022-11-13T09:12:59.619Z,102089.63
2022-11-13T09:15:27.572Z,102087.00
2022-11-13T09:17:58.390Z,102085.19
2022-11-13T09:20:28.474Z,102069.59
2022-11-13T09:23:00.202Z,102074.25
2022-11-13T09:25:34.145Z,102077.81
2022-11-13T09:28:06.030Z,102070.00
2022-11-13T09:30:34.370Z,102073.84
2022-11-13T09:33:02.748Z,102072.78
2022-11-13T09:35:35.817Z,102066.34
2022-11-13T09:38:10.503Z,102073.97
2022-11-13T09:40:43.185Z,102061.56
2022-11-13T09:43:21.579Z,102055.66
2022-11-13T09:45:50.607Z,102064.34
2022-11-13T09:48:26.959Z,102061.09
2022-11-13T09:50:57.923Z,102058.94
2022-11-13T09:53:27.433Z,102045.97
2022-11-13T09:56:04.328Z,102053.81
2022-11-13T09:58:44.893Z,102048.69
2022-11-13T10:01:23.105Z,102054.66
2022-11-13T10:04:02.674Z,102055.16
2022-11-13T10:06:46.040Z,102054.06
2022-11-13T10:09:23.123Z,102053.50
2022-11-13T10:11:56.568Z,102044.81
2022-11-13T10:14:30.992Z,102042.06
2022-11-13T10:17:03.908Z,102047.97
2022-11-13T10:19:37.448Z,102050.34
2022-11-13T10:22:32.070Z,102048.94
2022-11-13T10:25:10.459Z,102039.69
2022-11-13T10:27:38.965Z,102043.19
2022-11-13T10:30:14.320Z,102039.34
2022-11-13T10:32:42.340Z,102041.25
2022-11-13T10:35:33.997Z,102035.28
2022-11-13T10:38:08.569Z,102028.16
2022-11-13T10:40:39.793Z,102024.28
2022-11-13T10:43:14.549Z,102034.53
2022-11-13T10:45:42.968Z,102022.28
2022-11-13T10:48:21.842Z,102029.56
2022-11-13T10:50:58.762Z,102022.66
2022-11-13T10:53:34.703Z,102015.53
2022-11-13T10:56:02.601Z,102018.41
2022-11-13T10:58:31.110Z,102008.56
2022-11-13T11:00:59.611Z,102015.81
2022-11-13T11:03:29.534Z,102002.94
2022-11-13T11:05:59.249Z,102009.88
2022-11-13T11:08:32.444Z,102004.38
2022-11-13T11:11:19.789Z,102002.88
2022-11-13T11:13:49.116Z,101999.72
2022-11-13T11:16:22.113Z,101986.63
2022-11-13T11:18:55.045Z,101982.16
2022-11-13T11:21:37.708Z,101975.53
2022-11-13T11:24:14.396Z,101975.97
2022-11-13T11:26:47.810Z,101967.25
2022-11-13T11:29:20.611Z,101973.63
2022-11-13T11:31:55.099Z,101964.59
2022-11-13T11:34:27.959Z,101963.19
2022-11-13T11:37:04.248Z,101958.78
2022-11-13T11:39:39.491Z,101958.41
2022-11-13T11:42:16.619Z,101953.59
2022-11-13T11:45:05.127Z,101943.34
2022-11-13T11:47:34.526Z,101940.75
2022-11-13T11:50:02.956Z,101931.47
2022-11-13T11:52:47.105Z,101935.31
2022-11-13T11:56:02.893Z,101926.03
2022-11-13T11:59:07.597Z,101929.78
2022-11-13T12:01:52.368Z,101927.47
2022-11-13T12:04:36.142Z,101922.72
2022-11-13T12:07:17.549Z,101918.41
2022-11-13T12:09:55.834Z,101910.16
2022-11-13T12:12:39.167Z,101908.31
2022-11-13T12:15:13.528Z,101908.34
2022-11-13T12:17:52.315Z,101901.28
2022-11-13T12:20:27.665Z,101886.94
2022-11-13T12:23:05.297Z,101891.97
2022-11-13T12:25:40.777Z,101883.88
2022-11-13T12:28:19.162Z,101879.91
2022-11-13T12:31:01.653Z,101876.78
2022-11-13T12:33:41.117Z,101866.25
2022-11-13T12:36:12.222Z,101862.78
2022-11-13T12:38:47.429Z,101855.78
2022-11-13T12:41:25.401Z,101847.34
2022-11-13T12:44:20.700Z,101844.47
2022-11-13T12:46:49.684Z,101833.75
2022-11-13T12:49:28.841Z,101839.38
2022-11-13T12:51:59.222Z,101842.16
2022-11-13T12:54:29.396Z,101829.03
2022-11-13T12:57:19.700Z,101836.25
2022-11-13T12:59:53.912Z,101830.88
2022-11-13T13:02:41.088Z,101827.88
2022-11-13T13:05:35.085Z,101817.66
2022-11-13T13:08:16.269Z,101812.97
2022-11-13T13:11:02.791Z,101805.75
2022-11-13T13:13:41.545Z,101796.63
2022-11-13T13:16:12.047Z,101796.16
2022-11-13T13:18:40.901Z,101799.56
2022-11-13T13:21:11.292Z,101782.19
2022-11-13T13:23:41.567Z,101784.13
2022-11-13T13:26:18.419Z,101788.19
2022-11-13T13:28:51.520Z,101776.28
2022-11-13T13:31:37.247Z,101774.06
2022-11-13T13:34:31.102Z,101758.47
2022-11-13T13:37:11.209Z,101759.78
2022-11-13T13:39:50.043Z,101757.53
2022-11-13T13:42:38.685Z,101763.00
2022-11-13T13:45:26.475Z,101748.53
2022-11-13T13:47:59.434Z,101753.00
2022-11-13T13:50:30.667Z,101743.06
2022-11-13T13:53:00.605Z,101746.25
2022-11-13T13:55:35.477Z,101741.59
2022-11-13T13:58:08.471Z,101742.91
2022-11-13T14:00:53.290Z,101741.44
2022-11-13T14:03:28.081Z,101740.50
2022-11-13T14:05:59.377Z,101725.34
2022-11-13T14:08:30.778Z,101718.44
2022-11-13T14:10:58.789Z,101716.19
2022-11-13T14:13:29.550Z,101721.16
2022-11-13T14:16:04.750Z,101717.47
2022-11-13T14:18:35.245Z,101714.75
2022-11-13T14:21:06.281Z,101712.16
2022-11-13T14:23:38.441Z,101716.69
2022-11-13T14:26:07.559Z,101709.75
2022-11-13T14:28:44.101Z,101713.94
2022-11-13T14:31:15.118Z,101716.19
2022-11-13T14:33:48.245Z,101724.72
2022-11-13T14:36:17.672Z,101720.69
2022-11-13T14:38:52.000Z,101721.00
2022-11-13T14:41:24.438Z,101721.19
2022-11-13T14:43:54.299Z,101725.00
2022-11-13T14:46:34.878Z,101724.69
2022-11-13T14:49:04.582Z,101729.34
2022-11-13T14:51:34.758Z,101721.31
2022-11-13T14:54:07.871Z,101726.59
2022-11-13T14:56:39.472Z,101724.00
2022-11-13T14:59:18.360Z,101705.69
2022-11-13T15:01:55.118Z,101713.88
2022-11-13T15:04:24.813Z,101706.63
2022-11-13T15:06:55.889Z,101704.66
2022-11-13T15:09:25.541Z,101700.78
2022-11-13T15:11:53.958Z,101701.53
2022-11-13T15:14:22.890Z,101686.75
2022-11-13T15:16:54.028Z,101691.38
2022-11-13T15:19:29.661Z,101696.50
2022-11-13T15:22:26.050Z,101696.13
2022-11-13T15:24:46.904Z,101692.06
2022-11-13T15:27:16.179Z,101679.66
2022-11-13T15:29:44.635Z,101683.97
2022-11-13T15:32:13.639Z,101689.06
2022-11-13T15:34:43.237Z,101691.09
2022-11-13T15:37:13.786Z,101686.41
2022-11-13T15:39:41.606Z,101685.53
2022-11-13T15:42:16.436Z,101686.28
2022-11-13T15:44:44.519Z,101681.59
2022-11-13T15:47:26.968Z,101688.38
2022-11-13T15:50:12.942Z,101692.34
2022-11-13T15:52:43.934Z,101689.53
2022-11-13T15:55:20.794Z,101691.38
2022-11-13T15:57:48.763Z,101684.75
2022-11-13T16:00:18.531Z,101685.97
2022-11-13T16:02:50.308Z,101687.19
2022-11-13T16:05:19.867Z,101675.28
2022-11-13T16:07:48.471Z,101672.69
2022-11-13T16:10:17.128Z,101670.06
2022-11-13T16:12:45.862Z,101664.22
2022-11-13T16:15:15.411Z,101667.66
2022-11-13T16:17:47.561Z,101654.78
2022-11-13T16:20:18.288Z,101650.31
2022-11-13T16:22:47.981Z,101652.97
2022-11-13T16:25:18.528Z,101665.03
2022-11-13T16:27:47.154Z,101659.19
2022-11-13T16:30:17.086Z,101660.41
2022-11-13T16:32:44.923Z,101643.19
2022-11-13T16:35:16.885Z,101640.03
2022-11-13T16:37:45.076Z,101642.03
2022-11-13T16:40:22.072Z,101640.81
2022-11-13T16:42:50.097Z,101635.97
2022-11-13T16:45:18.466Z,101644.72
2022-11-13T16:47:46.956Z,101639.38
2022-11-13T16:50:18.221Z,101637.78
2022-11-13T16:52:46.181Z,101623.47
2022-11-13T16:55:14.331Z,101627.06
2022-11-13T16:57:43.601Z,101620.41
2022-11-13T17:00:15.340Z,101620.00
2022-11-13T17:02:43.214Z,101616.84
2022-11-13T17:05:13.834Z,101612.28
2022-11-13T17:07:41.955Z,101618.94
2022-11-13T17:13:02.204Z,101606.13
2022-11-13T17:15:30.283Z,101605.06
2022-11-13T17:17:59.590Z,101606.78
2022-11-13T17:20:27.824Z,101604.16
2022-11-13T17:22:56.058Z,101598.47
2022-11-13T17:25:26.707Z,101602.91
2022-11-13T17:27:55.023Z,101603.47
2022-11-13T17:30:25.079Z,101601.06
2022-11-13T17:32:52.929Z,101603.28
2022-11-13T17:35:20.824Z,101605.47
2022-11-13T17:37:48.648Z,101600.13
2022-11-13T17:40:17.347Z,101594.75
2022-11-13T17:42:47.951Z,101588.31
2022-11-13T17:45:15.925Z,101589.47
2022-11-13T17:47:45.215Z,101592.25
2022-11-13T17:50:13.051Z,101589.59
2022-11-13T17:52:40.931Z,101588.59
2022-11-13T17:55:11.881Z,101585.94
2022-11-13T17:57:39.691Z,101588.72
2022-11-13T18:00:08.867Z,101585.00
2022-11-13T18:02:36.657Z,101585.03
2022-11-13T18:05:06.762Z,101580.22
2022-11-13T18:07:34.621Z,101590.78
2022-11-13T18:10:02.512Z,101581.34
2022-11-13T18:12:30.603Z,101585.16
2022-11-13T18:14:58.465Z,101574.56
2022-11-13T18:17:26.644Z,101572.16
2022-11-13T18:20:01.345Z,101570.03
2022-11-13T18:22:31.634Z,101559.75
2022-11-13T18:25:01.438Z,101564.16
2022-11-13T18:27:29.472Z,101559.31
2022-11-13T18:29:57.361Z,101559.91
2022-11-13T18:32:25.209Z,101559.66
2022-11-13T18:34:52.997Z,101555.13
2022-11-13T18:37:21.011Z,101556.78
2022-11-13T18:39:50.220Z,101558.47
2022-11-13T18:42:18.171Z,101553.09
2022-11-13T18:44:46.044Z,101549.88
2022-11-13T18:47:13.820Z,101548.53
2022-11-13T18:49:41.827Z,101540.19
2022-11-13T18:52:09.887Z,101543.19
2022-11-13T18:54:37.989Z,101538.03
2022-11-13T18:57:07.375Z,101540.75
2022-11-13T18:59:35.279Z,101539.94
2022-11-13T19:02:03.222Z,101534.81
2022-11-13T19:04:31.206Z,101538.13
2022-11-13T19:06:59.189Z,101521.59
2022-11-13T19:09:27.530Z,101529.78
2022-11-13T19:11:55.430Z,101529.56
2022-11-13T19:14:24.858Z,101522.03
2022-11-13T19:16:52.767Z,101529.09
2022-11-13T19:19:23.371Z,101522.91
2022-11-13T19:21:52.192Z,101529.22
2022-11-13T19:24:20.261Z,101530.56
2022-11-13T19:26:48.310Z,101537.38
2022-11-13T19:29:16.336Z,101527.91
2022-11-13T19:31:47.855Z,101523.88
2022-11-13T19:34:15.791Z,101516.34
2022-11-13T19:36:45.138Z,101519.59
2022-11-13T19:39:13.788Z,101517.97
2022-11-13T19:41:42.130Z,101511.47
2022-11-13T19:44:11.258Z,101519.59
2022-11-13T19:46:39.320Z,101523.41
2022-11-13T19:49:09.618Z,101514.47
2022-11-13T19:51:37.719Z,101517.19
2022-11-13T19:54:05.714Z,101523.69
2022-11-13T19:56:33.674Z,101509.34
2022-11-13T19:59:02.368Z,101519.13
2022-11-13T20:01:31.978Z,101520.50
2022-11-13T20:04:03.002Z,101518.09
2022-11-13T20:06:33.496Z,101513.22
2022-11-13T20:09:02.648Z,101515.41
2022-11-13T20:11:30.754Z,101502.97
2022-11-13T20:13:59.032Z,101510.59
2022-11-13T20:16:27.076Z,101504.09
2022-11-13T20:18:57.866Z,101499.28
2022-11-13T20:21:26.734Z,101504.69
2022-11-13T20:23:57.531Z,101504.69
2022-11-13T20:26:26.319Z,101503.84
2022-11-13T20:28:54.412Z,101494.41
2022-11-13T20:31:24.458Z,101503.63
2022-11-13T20:33:54.853Z,101494.75
2022-11-13T20:36:23.727Z,101496.94
2022-11-13T20:38:54.292Z,101490.72
2022-11-13T20:41:24.718Z,101490.72
2022-11-13T20:43:55.843Z,101476.66
2022-11-13T20:46:24.070Z,101485.84
2022-11-13T20:48:52.200Z,101482.63
2022-11-13T20:51:22.050Z,101480.22
2022-11-13T20:53:50.834Z,101483.19
2022-11-13T20:56:19.856Z,101478.88
2022-11-13T20:58:49.527Z,101472.94
2022-11-13T21:01:20.407Z,101464.88
2022-11-13T21:03:49.425Z,101467.03
2022-11-13T21:06:19.559Z,101470.84
2022-11-13T21:08:48.448Z,101458.91
2022-11-13T21:11:19.520Z,101459.22
2022-11-13T21:13:49.702Z,101458.41
2022-11-13T21:16:18.259Z,101457.88
2022-11-13T21:18:46.427Z,101451.94
2022-11-13T21:21:16.171Z,101457.41
2022-11-13T21:23:44.074Z,101465.25
2022-11-13T21:26:12.448Z,101460.41
2022-11-13T21:28:40.802Z,101459.31
2022-11-13T21:31:17.051Z,101453.41
2022-11-13T21:33:46.872Z,101454.81
2022-11-13T21:36:16.834Z,101450.75
2022-11-13T21:38:44.812Z,101449.94
2022-11-13T21:41:24.743Z,101443.50
2022-11-13T21:43:55.119Z,101444.84
2022-11-13T21:46:28.462Z,101447.31
2022-11-13T21:48:57.840Z,101451.41
2022-11-13T21:51:25.783Z,101452.75
2022-11-13T21:53:53.891Z,101448.94
2022-11-13T21:56:21.966Z,101444.34
2022-11-13T21:58:49.787Z,101446.78
2022-11-13T22:01:18.684Z,101438.13
2022-11-13T22:03:47.969Z,101438.72
2022-11-13T22:06:18.380Z,101430.06
2022-11-13T22:08:48.260Z,101436.03
2022-11-13T22:11:16.337Z,101440.09
2022-11-13T22:13:44.248Z,101434.72
2022-11-13T22:16:14.086Z,101442.59
2022-11-13T22:18:42.050Z,101429.63
2022-11-13T22:21:12.800Z,101424.25
2022-11-13T22:23:41.117Z,101424.28
2022-11-13T22:26:11.089Z,101430.22
2022-11-13T22:28:41.321Z,101428.09
2022-11-13T22:31:14.528Z,101426.78
2022-11-13T22:33:48.165Z,101423.81
2022-11-13T22:36:21.450Z,101429.22
2022-11-13T22:38:49.891Z,101427.88
2022-11-13T22:41:23.667Z,101417.88
2022-11-13T22:43:53.481Z,101419.47
2022-11-13T22:46:23.129Z,101424.34
2022-11-13T22:48:52.621Z,101417.59
2022-11-13T22:51:23.520Z,101412.75
2022-11-13T22:53:53.355Z,101414.13
2022-11-13T22:56:22.505Z,101418.97
2022-11-13T22:58:51.025Z,101420.63
2022-11-13T23:01:21.825Z,101405.78
2022-11-13T23:03:50.869Z,101407.16
2022-11-13T23:06:22.146Z,101406.06
2022-11-13T23:08:51.179Z,101402.03
2022-11-13T23:11:21.362Z,101406.63
2022-11-13T23:13:51.359Z,101399.09
2022-11-13T23:16:20.036Z,101398.56
2022-11-13T23:18:48.828Z,101392.63
2022-11-13T23:21:17.902Z,101396.69
2022-11-13T23:23:47.349Z,101387.78
2022-11-13T23:26:16.989Z,101382.91
2022-11-13T23:28:45.124Z,101382.91
2022-11-13T23:31:13.310Z,101384.53
2022-11-13T23:33:41.542Z,101382.41
2022-11-13T23:36:11.396Z,101374.28
2022-11-13T23:38:39.420Z,101371.84
2022-11-13T23:41:10.506Z,101373.22
2022-11-13T23:46:26.635Z,101361.34
2022-11-13T23:48:54.485Z,101369.47
2022-11-13T23:51:22.493Z,101368.13
2022-11-13T23:53:50.513Z,101365.19
2022-11-13T23:56:19.679Z,101367.59
2022-11-13T23:58:47.592Z,101362.50
